sensor_id;sensor_type;location;lat;lon;timestamp;P1;durP1;ratioP1;P2;durP2;ratioP2
1140;SDS011;559;48.628;8.924;2022-09-03T00:01:15;131.60;;;125.17;;
1140;SDS011;559;48.628;8.924;2022-09-03T00:03:44;129.90;;;123.30;;
1140;SDS011;559;48.628;8.924;2022-09-03T00:06:13;130.07;;;123.60;;
1140;SDS011;559;48.628;8.924;2022-09-03T00:08:43;129.67;;;123.20;;
1140;SDS011;559;48.628;8.924;2022-09-03T00:11:13;129.60;;;123.33;;
1140;SDS011;559;48.628;8.924;2022-09-03T00:13:44;128.50;;;122.40;;
1140;SDS011;559;48.628;8.924;2022-09-03T00:16:16;122.63;;;116.67;;
1140;SDS011;559;48.628;8.924;2022-09-03T00:18:45;128.23;;;122.00;;
1140;SDS011;559;48.628;8.924;2022-09-03T00:21:14;121.40;;;115.43;;
1140;SDS011;559;48.628;8.924;2022-09-03T00:23:44;122.20;;;116.13;;
1140;SDS011;559;48.628;8.924;2022-09-03T00:26:17;121.90;;;115.97;;
1140;SDS011;559;48.628;8.924;2022-09-03T00:28:50;123.53;;;117.53;;
1140;SDS011;559;48.628;8.924;2022-09-03T00:31:22;122.77;;;116.67;;
1140;SDS011;559;48.628;8.924;2022-09-03T00:33:51;126.93;;;120.57;;
1140;SDS011;559;48.628;8.924;2022-09-03T00:36:22;126.47;;;120.17;;
1140;SDS011;559;48.628;8.924;2022-09-03T00:38:51;124.67;;;118.47;;
1140;SDS011;559;48.628;8.924;2022-09-03T00:41:20;126.40;;;119.50;;
1140;SDS011;559;48.628;8.924;2022-09-03T00:43:59;125.00;;;118.67;;
1140;SDS011;559;48.628;8.924;2022-09-03T00:46:38;126.57;;;120.17;;
1140;SDS011;559;48.628;8.924;2022-09-03T00:49:18;124.00;;;117.80;;
1140;SDS011;559;48.628;8.924;2022-09-03T00:51:52;122.63;;;116.63;;
1140;SDS011;559;48.628;8.924;2022-09-03T00:54:24;123.80;;;117.80;;
1140;SDS011;559;48.628;8.924;2022-09-03T00:56:58;121.50;;;115.40;;
1140;SDS011;559;48.628;8.924;2022-09-03T00:59:34;122.40;;;116.40;;
1140;SDS011;559;48.628;8.924;2022-09-03T01:02:10;121.90;;;116.17;;
1140;SDS011;559;48.628;8.924;2022-09-03T01:04:44;123.60;;;117.73;;
1140;SDS011;559;48.628;8.924;2022-09-03T01:07:18;120.57;;;114.93;;
1140;SDS011;559;48.628;8.924;2022-09-03T01:09:58;118.17;;;112.57;;
1140;SDS011;559;48.628;8.924;2022-09-03T01:12:36;114.43;;;109.10;;
1140;SDS011;559;48.628;8.924;2022-09-03T01:15:09;114.03;;;108.83;;
1140;SDS011;559;48.628;8.924;2022-09-03T01:17:45;114.30;;;109.20;;
1140;SDS011;559;48.628;8.924;2022-09-03T01:20:22;115.30;;;110.10;;
1140;SDS011;559;48.628;8.924;2022-09-03T01:25:51;117.83;;;112.43;;
1140;SDS011;559;48.628;8.924;2022-09-03T01:31:10;116.47;;;111.17;;
1140;SDS011;559;48.628;8.924;2022-09-03T01:33:46;115.67;;;110.30;;
1140;SDS011;559;48.628;8.924;2022-09-03T01:36:17;118.73;;;113.17;;
1140;SDS011;559;48.628;8.924;2022-09-03T01:38:50;117.83;;;112.43;;
1140;SDS011;559;48.628;8.924;2022-09-03T01:41:21;114.20;;;109.10;;
1140;SDS011;559;48.628;8.924;2022-09-03T01:44:12;112.13;;;107.03;;
1140;SDS011;559;48.628;8.924;2022-09-03T01:46:46;111.10;;;106.10;;
1140;SDS011;559;48.628;8.924;2022-09-03T01:49:22;108.70;;;103.80;;
1140;SDS011;559;48.628;8.924;2022-09-03T01:51:50;113.43;;;108.33;;
1140;SDS011;559;48.628;8.924;2022-09-03T01:54:25;108.87;;;104.07;;
1140;SDS011;559;48.628;8.924;2022-09-03T02:00:15;111.17;;;105.97;;
1140;SDS011;559;48.628;8.924;2022-09-03T02:02:44;119.23;;;113.93;;
1140;SDS011;559;48.628;8.924;2022-09-03T02:05:13;114.87;;;109.67;;
1140;SDS011;559;48.628;8.924;2022-09-03T02:07:41;111.50;;;106.60;;
1140;SDS011;559;48.628;8.924;2022-09-03T02:10:11;114.13;;;109.03;;
1140;SDS011;559;48.628;8.924;2022-09-03T02:12:40;110.73;;;105.83;;
1140;SDS011;559;48.628;8.924;2022-09-03T02:15:10;110.20;;;105.40;;
1140;SDS011;559;48.628;8.924;2022-09-03T02:17:40;111.20;;;106.30;;
1140;SDS011;559;48.628;8.924;2022-09-03T02:20:09;108.27;;;103.40;;
1140;SDS011;559;48.628;8.924;2022-09-03T02:22:37;109.47;;;104.57;;
1140;SDS011;559;48.628;8.924;2022-09-03T02:25:05;111.60;;;106.60;;
1140;SDS011;559;48.628;8.924;2022-09-03T02:27:32;110.27;;;105.27;;
1140;SDS011;559;48.628;8.924;2022-09-03T02:29:59;113.87;;;108.80;;
1140;SDS011;559;48.628;8.924;2022-09-03T02:32:25;114.27;;;109.10;;
1140;SDS011;559;48.628;8.924;2022-09-03T02:34:53;112.90;;;107.70;;
1140;SDS011;559;48.628;8.924;2022-09-03T02:37:20;111.87;;;106.57;;
1140;SDS011;559;48.628;8.924;2022-09-03T02:39:47;112.87;;;107.57;;
1140;SDS011;559;48.628;8.924;2022-09-03T02:42:14;113.80;;;108.80;;
1140;SDS011;559;48.628;8.924;2022-09-03T02:44:41;112.50;;;107.30;;
1140;SDS011;559;48.628;8.924;2022-09-03T02:47:11;111.47;;;106.50;;
1140;SDS011;559;48.628;8.924;2022-09-03T02:49:39;112.97;;;107.67;;
1140;SDS011;559;48.628;8.924;2022-09-03T02:52:07;118.63;;;113.23;;
1140;SDS011;559;48.628;8.924;2022-09-03T02:54:36;114.50;;;109.27;;
1140;SDS011;559;48.628;8.924;2022-09-03T02:57:04;114.73;;;109.43;;
1140;SDS011;559;48.628;8.924;2022-09-03T02:59:31;115.47;;;109.87;;
1140;SDS011;559;48.628;8.924;2022-09-03T03:01:58;114.97;;;109.60;;
1140;SDS011;559;48.628;8.924;2022-09-03T03:04:25;115.77;;;110.37;;
1140;SDS011;559;48.628;8.924;2022-09-03T03:06:51;119.23;;;113.57;;
1140;SDS011;559;48.628;8.924;2022-09-03T03:09:19;116.83;;;111.13;;
1140;SDS011;559;48.628;8.924;2022-09-03T03:11:46;119.67;;;113.47;;
1140;SDS011;559;48.628;8.924;2022-09-03T03:14:14;118.73;;;112.90;;
1140;SDS011;559;48.628;8.924;2022-09-03T03:16:40;123.20;;;117.30;;
1140;SDS011;559;48.628;8.924;2022-09-03T03:19:07;124.33;;;118.40;;
1140;SDS011;559;48.628;8.924;2022-09-03T03:21:33;125.37;;;119.37;;
1140;SDS011;559;48.628;8.924;2022-09-03T03:24:00;125.97;;;119.37;;
1140;SDS011;559;48.628;8.924;2022-09-03T03:26:28;126.33;;;120.00;;
1140;SDS011;559;48.628;8.924;2022-09-03T03:28:55;130.60;;;124.37;;
1140;SDS011;559;48.628;8.924;2022-09-03T03:31:23;126.87;;;120.67;;
1140;SDS011;559;48.628;8.924;2022-09-03T03:33:50;130.80;;;124.70;;
1140;SDS011;559;48.628;8.924;2022-09-03T03:36:17;127.57;;;121.33;;
1140;SDS011;559;48.628;8.924;2022-09-03T03:38:44;126.17;;;120.00;;
1140;SDS011;559;48.628;8.924;2022-09-03T03:41:12;127.67;;;121.47;;
1140;SDS011;559;48.628;8.924;2022-09-03T03:43:41;127.03;;;120.60;;
1140;SDS011;559;48.628;8.924;2022-09-03T03:46:08;127.73;;;121.33;;
1140;SDS011;559;48.628;8.924;2022-09-03T03:48:34;130.10;;;123.40;;
1140;SDS011;559;48.628;8.924;2022-09-03T03:51:02;127.87;;;121.37;;
1140;SDS011;559;48.628;8.924;2022-09-03T03:53:30;130.47;;;124.03;;
1140;SDS011;559;48.628;8.924;2022-09-03T03:55:58;130.80;;;124.40;;
1140;SDS011;559;48.628;8.924;2022-09-03T03:58:26;132.13;;;125.57;;
1140;SDS011;559;48.628;8.924;2022-09-03T04:00:55;142.18;;;134.18;;
1140;SDS011;559;48.628;8.924;2022-09-03T04:03:21;133.60;;;126.30;;
1140;SDS011;559;48.628;8.924;2022-09-03T04:05:54;133.60;;;126.67;;
1140;SDS011;559;48.628;8.924;2022-09-03T04:08:21;136.47;;;129.37;;
1140;SDS011;559;48.628;8.924;2022-09-03T04:10:48;133.93;;;127.00;;
1140;SDS011;559;48.628;8.924;2022-09-03T04:13:14;134.70;;;127.60;;
1140;SDS011;559;48.628;8.924;2022-09-03T04:15:41;137.03;;;129.93;;
1140;SDS011;559;48.628;8.924;2022-09-03T04:18:09;129.13;;;122.47;;
1140;SDS011;559;48.628;8.924;2022-09-03T04:20:35;131.20;;;124.47;;
1140;SDS011;559;48.628;8.924;2022-09-03T04:23:02;136.50;;;129.37;;
1140;SDS011;559;48.628;8.924;2022-09-03T04:25:30;129.57;;;122.97;;
1140;SDS011;559;48.628;8.924;2022-09-03T04:27:56;129.00;;;122.43;;
1140;SDS011;559;48.628;8.924;2022-09-03T04:30:23;132.83;;;126.17;;
1140;SDS011;559;48.628;8.924;2022-09-03T04:32:51;135.00;;;128.33;;
1140;SDS011;559;48.628;8.924;2022-09-03T04:35:19;130.07;;;123.30;;
1140;SDS011;559;48.628;8.924;2022-09-03T04:37:47;130.27;;;123.67;;
1140;SDS011;559;48.628;8.924;2022-09-03T04:40:13;132.93;;;126.23;;
1140;SDS011;559;48.628;8.924;2022-09-03T04:42:40;132.50;;;125.80;;
1140;SDS011;559;48.628;8.924;2022-09-03T04:45:07;132.30;;;125.50;;
1140;SDS011;559;48.628;8.924;2022-09-03T04:47:35;132.50;;;125.40;;
1140;SDS011;559;48.628;8.924;2022-09-03T04:50:02;128.70;;;122.10;;
1140;SDS011;559;48.628;8.924;2022-09-03T04:52:30;128.87;;;122.20;;
1140;SDS011;559;48.628;8.924;2022-09-03T04:54:57;128.00;;;121.50;;
1140;SDS011;559;48.628;8.924;2022-09-03T04:57:24;127.07;;;120.67;;
1140;SDS011;559;48.628;8.924;2022-09-03T04:59:58;124.07;;;117.47;;
1140;SDS011;559;48.628;8.924;2022-09-03T05:02:24;122.57;;;116.00;;
1140;SDS011;559;48.628;8.924;2022-09-03T05:04:51;126.80;;;120.00;;
1140;SDS011;559;48.628;8.924;2022-09-03T05:07:18;122.23;;;115.73;;
1140;SDS011;559;48.628;8.924;2022-09-03T05:09:46;122.97;;;116.30;;
1140;SDS011;559;48.628;8.924;2022-09-03T05:12:12;119.00;;;112.50;;
1140;SDS011;559;48.628;8.924;2022-09-03T05:14:41;118.07;;;111.67;;
1140;SDS011;559;48.628;8.924;2022-09-03T05:17:07;119.17;;;112.77;;
1140;SDS011;559;48.628;8.924;2022-09-03T05:19:34;117.10;;;110.70;;
1140;SDS011;559;48.628;8.924;2022-09-03T05:22:00;118.67;;;112.27;;
1140;SDS011;559;48.628;8.924;2022-09-03T05:24:27;123.70;;;117.10;;
1140;SDS011;559;48.628;8.924;2022-09-03T05:26:55;119.53;;;113.13;;
1140;SDS011;559;48.628;8.924;2022-09-03T05:29:21;122.00;;;115.50;;
1140;SDS011;559;48.628;8.924;2022-09-03T05:31:49;121.23;;;114.83;;
1140;SDS011;559;48.628;8.924;2022-09-03T05:34:15;117.40;;;110.70;;
1140;SDS011;559;48.628;8.924;2022-09-03T05:36:42;117.70;;;111.30;;
1140;SDS011;559;48.628;8.924;2022-09-03T05:39:13;118.27;;;111.70;;
1140;SDS011;559;48.628;8.924;2022-09-03T05:41:39;119.47;;;112.87;;
1140;SDS011;559;48.628;8.924;2022-09-03T05:44:07;116.10;;;109.60;;
1140;SDS011;559;48.628;8.924;2022-09-03T05:46:34;121.90;;;115.00;;
1140;SDS011;559;48.628;8.924;2022-09-03T05:49:02;115.20;;;108.77;;
1140;SDS011;559;48.628;8.924;2022-09-03T05:51:30;114.90;;;108.60;;
1140;SDS011;559;48.628;8.924;2022-09-03T05:53:57;120.30;;;113.60;;
1140;SDS011;559;48.628;8.924;2022-09-03T05:56:24;116.60;;;110.20;;
1140;SDS011;559;48.628;8.924;2022-09-03T05:58:53;115.50;;;109.20;;
1140;SDS011;559;48.628;8.924;2022-09-03T06:01:23;115.00;;;108.80;;
1140;SDS011;559;48.628;8.924;2022-09-03T06:03:52;114.93;;;108.73;;
1140;SDS011;559;48.628;8.924;2022-09-03T06:06:20;118.07;;;111.70;;
1140;SDS011;559;48.628;8.924;2022-09-03T06:08:49;113.40;;;107.00;;
1140;SDS011;559;48.628;8.924;2022-09-03T06:11:16;111.53;;;105.43;;
1140;SDS011;559;48.628;8.924;2022-09-03T06:13:42;109.40;;;103.40;;
1140;SDS011;559;48.628;8.924;2022-09-03T06:16:09;111.20;;;105.20;;
1140;SDS011;559;48.628;8.924;2022-09-03T06:18:37;111.23;;;105.17;;
1140;SDS011;559;48.628;8.924;2022-09-03T06:21:04;110.30;;;104.37;;
1140;SDS011;559;48.628;8.924;2022-09-03T06:23:32;111.10;;;105.00;;
1140;SDS011;559;48.628;8.924;2022-09-03T06:26:00;109.40;;;103.17;;
1140;SDS011;559;48.628;8.924;2022-09-03T06:28:27;108.80;;;102.87;;
1140;SDS011;559;48.628;8.924;2022-09-03T06:30:56;112.90;;;106.77;;
1140;SDS011;559;48.628;8.924;2022-09-03T06:33:23;112.53;;;106.53;;
1140;SDS011;559;48.628;8.924;2022-09-03T06:35:52;106.33;;;100.33;;
1140;SDS011;559;48.628;8.924;2022-09-03T06:38:22;104.07;;;98.17;;
1140;SDS011;559;48.628;8.924;2022-09-03T06:40:50;105.27;;;99.37;;
1140;SDS011;559;48.628;8.924;2022-09-03T06:43:18;108.33;;;102.30;;
1140;SDS011;559;48.628;8.924;2022-09-03T06:45:51;104.93;;;98.83;;
1140;SDS011;559;48.628;8.924;2022-09-03T06:48:18;105.70;;;99.27;;
1140;SDS011;559;48.628;8.924;2022-09-03T06:50:53;104.10;;;98.30;;
1140;SDS011;559;48.628;8.924;2022-09-03T06:53:21;104.37;;;98.17;;
1140;SDS011;559;48.628;8.924;2022-09-03T06:55:51;102.20;;;96.30;;
1140;SDS011;559;48.628;8.924;2022-09-03T06:58:19;103.23;;;97.60;;
1140;SDS011;559;48.628;8.924;2022-09-03T07:00:46;102.40;;;96.80;;
1140;SDS011;559;48.628;8.924;2022-09-03T07:03:13;99.70;;;94.20;;
1140;SDS011;559;48.628;8.924;2022-09-03T07:05:40;104.53;;;98.63;;
1140;SDS011;559;48.628;8.924;2022-09-03T07:08:09;100.63;;;95.13;;
1140;SDS011;559;48.628;8.924;2022-09-03T07:10:35;103.03;;;97.33;;
1140;SDS011;559;48.628;8.924;2022-09-03T07:13:02;104.53;;;98.83;;
1140;SDS011;559;48.628;8.924;2022-09-03T07:15:30;100.20;;;94.60;;
1140;SDS011;559;48.628;8.924;2022-09-03T07:17:57;104.23;;;98.30;;
1140;SDS011;559;48.628;8.924;2022-09-03T07:20:24;99.90;;;94.23;;
1140;SDS011;559;48.628;8.924;2022-09-03T07:22:53;98.20;;;92.90;;
1140;SDS011;559;48.628;8.924;2022-09-03T07:25:21;96.23;;;91.03;;
1140;SDS011;559;48.628;8.924;2022-09-03T07:27:48;91.17;;;86.30;;
1140;SDS011;559;48.628;8.924;2022-09-03T07:30:15;91.53;;;86.53;;
1140;SDS011;559;48.628;8.924;2022-09-03T07:32:43;89.70;;;85.00;;
1140;SDS011;559;48.628;8.924;2022-09-03T07:35:10;87.93;;;83.40;;
1140;SDS011;559;48.628;8.924;2022-09-03T07:37:39;85.93;;;81.50;;
1140;SDS011;559;48.628;8.924;2022-09-03T07:40:06;81.63;;;77.13;;
1140;SDS011;559;48.628;8.924;2022-09-03T07:42:35;78.10;;;73.80;;
1140;SDS011;559;48.628;8.924;2022-09-03T07:45:04;82.30;;;78.20;;
1140;SDS011;559;48.628;8.924;2022-09-03T07:47:34;79.90;;;76.00;;
1140;SDS011;559;48.628;8.924;2022-09-03T07:50:01;76.20;;;72.50;;
1140;SDS011;559;48.628;8.924;2022-09-03T07:52:28;73.80;;;70.10;;
1140;SDS011;559;48.628;8.924;2022-09-03T07:54:54;77.10;;;73.40;;
1140;SDS011;559;48.628;8.924;2022-09-03T07:57:21;77.10;;;73.40;;
1140;SDS011;559;48.628;8.924;2022-09-03T07:59:49;78.10;;;74.50;;
1140;SDS011;559;48.628;8.924;2022-09-03T08:02:15;77.07;;;73.47;;
1140;SDS011;559;48.628;8.924;2022-09-03T08:04:42;73.90;;;70.30;;
1140;SDS011;559;48.628;8.924;2022-09-03T08:07:09;70.10;;;66.40;;
1140;SDS011;559;48.628;8.924;2022-09-03T08:09:36;71.60;;;68.40;;
1140;SDS011;559;48.628;8.924;2022-09-03T08:12:02;76.00;;;72.80;;
1140;SDS011;559;48.628;8.924;2022-09-03T08:14:29;75.30;;;72.10;;
1140;SDS011;559;48.628;8.924;2022-09-03T08:16:57;75.00;;;71.80;;
1140;SDS011;559;48.628;8.924;2022-09-03T08:19:24;74.57;;;71.47;;
1140;SDS011;559;48.628;8.924;2022-09-03T08:21:51;74.93;;;71.63;;
1140;SDS011;559;48.628;8.924;2022-09-03T08:24:18;79.73;;;76.23;;
1140;SDS011;559;48.628;8.924;2022-09-03T08:26:45;75.90;;;72.63;;
1140;SDS011;559;48.628;8.924;2022-09-03T08:29:11;78.60;;;75.20;;
1140;SDS011;559;48.628;8.924;2022-09-03T08:31:38;76.10;;;72.70;;
1140;SDS011;559;48.628;8.924;2022-09-03T08:34:06;74.50;;;71.40;;
1140;SDS011;559;48.628;8.924;2022-09-03T08:36:36;71.50;;;68.50;;
1140;SDS011;559;48.628;8.924;2022-09-03T08:39:06;73.03;;;70.03;;
1140;SDS011;559;48.628;8.924;2022-09-03T08:41:37;73.90;;;70.87;;
1140;SDS011;559;48.628;8.924;2022-09-03T08:44:13;71.30;;;68.33;;
1140;SDS011;559;48.628;8.924;2022-09-03T08:46:47;71.40;;;68.33;;
1140;SDS011;559;48.628;8.924;2022-09-03T08:49:19;72.50;;;68.93;;
1140;SDS011;559;48.628;8.924;2022-09-03T08:51:49;72.60;;;69.50;;
1140;SDS011;559;48.628;8.924;2022-09-03T08:54:17;69.93;;;66.93;;
1140;SDS011;559;48.628;8.924;2022-09-03T08:56:47;68.07;;;65.47;;
1140;SDS011;559;48.628;8.924;2022-09-03T08:59:14;64.03;;;61.43;;
1140;SDS011;559;48.628;8.924;2022-09-03T09:01:42;65.50;;;63.07;;
1140;SDS011;559;48.628;8.924;2022-09-03T09:04:17;64.40;;;62.03;;
1140;SDS011;559;48.628;8.924;2022-09-03T09:06:54;66.97;;;64.47;;
1140;SDS011;559;48.628;8.924;2022-09-03T09:09:27;65.43;;;63.03;;
1140;SDS011;559;48.628;8.924;2022-09-03T09:11:58;70.47;;;67.77;;
1140;SDS011;559;48.628;8.924;2022-09-03T09:14:31;67.73;;;65.23;;
1140;SDS011;559;48.628;8.924;2022-09-03T09:17:01;67.97;;;64.97;;
1140;SDS011;559;48.628;8.924;2022-09-03T09:19:38;70.37;;;67.47;;
1140;SDS011;559;48.628;8.924;2022-09-03T09:22:08;75.80;;;72.50;;
1140;SDS011;559;48.628;8.924;2022-09-03T09:24:37;76.80;;;73.80;;
1140;SDS011;559;48.628;8.924;2022-09-03T09:27:05;76.10;;;72.77;;
1140;SDS011;559;48.628;8.924;2022-09-03T09:29:34;75.63;;;72.83;;
1140;SDS011;559;48.628;8.924;2022-09-03T09:32:02;72.37;;;69.77;;
1140;SDS011;559;48.628;8.924;2022-09-03T09:34:32;67.30;;;64.80;;
1140;SDS011;559;48.628;8.924;2022-09-03T09:37:03;66.17;;;63.67;;
1140;SDS011;559;48.628;8.924;2022-09-03T09:39:30;71.97;;;69.10;;
1140;SDS011;559;48.628;8.924;2022-09-03T09:41:57;73.33;;;70.63;;
1140;SDS011;559;48.628;8.924;2022-09-03T09:44:26;71.90;;;69.23;;
1140;SDS011;559;48.628;8.924;2022-09-03T09:47:00;73.83;;;70.83;;
1140;SDS011;559;48.628;8.924;2022-09-03T09:49:31;72.20;;;69.50;;
1140;SDS011;559;48.628;8.924;2022-09-03T09:51:59;74.40;;;71.60;;
1140;SDS011;559;48.628;8.924;2022-09-03T09:54:28;72.63;;;69.73;;
1140;SDS011;559;48.628;8.924;2022-09-03T09:56:59;74.33;;;71.63;;
1140;SDS011;559;48.628;8.924;2022-09-03T09:59:27;66.43;;;64.10;;
1140;SDS011;559;48.628;8.924;2022-09-03T10:02:01;76.17;;;73.23;;
1140;SDS011;559;48.628;8.924;2022-09-03T10:04:30;80.77;;;77.90;;
1140;SDS011;559;48.628;8.924;2022-09-03T10:06:58;80.03;;;77.07;;
1140;SDS011;559;48.628;8.924;2022-09-03T10:09:31;80.33;;;77.23;;
1140;SDS011;559;48.628;8.924;2022-09-03T10:12:04;81.60;;;78.60;;
1140;SDS011;559;48.628;8.924;2022-09-03T10:14:39;77.50;;;74.70;;
1140;SDS011;559;48.628;8.924;2022-09-03T10:17:12;61.50;;;59.40;;
1140;SDS011;559;48.628;8.924;2022-09-03T10:19:45;66.87;;;64.67;;
1140;SDS011;559;48.628;8.924;2022-09-03T10:22:41;59.10;;;57.30;;
1140;SDS011;559;48.628;8.924;2022-09-03T10:25:11;62.57;;;60.27;;
1140;SDS011;559;48.628;8.924;2022-09-03T10:27:39;57.40;;;55.50;;
1140;SDS011;559;48.628;8.924;2022-09-03T10:30:06;65.57;;;63.47;;
1140;SDS011;559;48.628;8.924;2022-09-03T10:32:35;70.97;;;68.63;;
1140;SDS011;559;48.628;8.924;2022-09-03T10:35:09;68.60;;;66.40;;
1140;SDS011;559;48.628;8.924;2022-09-03T10:37:46;63.10;;;61.20;;
1140;SDS011;559;48.628;8.924;2022-09-03T10:40:20;62.37;;;60.47;;
1140;SDS011;559;48.628;8.924;2022-09-03T10:42:59;56.17;;;54.30;;
1140;SDS011;559;48.628;8.924;2022-09-03T10:45:34;56.63;;;54.90;;
1140;SDS011;559;48.628;8.924;2022-09-03T10:48:13;51.50;;;49.80;;
1140;SDS011;559;48.628;8.924;2022-09-03T10:50:47;53.03;;;51.33;;
1140;SDS011;559;48.628;8.924;2022-09-03T10:53:23;56.67;;;54.87;;
1140;SDS011;559;48.628;8.924;2022-09-03T10:55:58;52.13;;;50.63;;
1140;SDS011;559;48.628;8.924;2022-09-03T10:58:47;43.03;;;41.63;;
1140;SDS011;559;48.628;8.924;2022-09-03T11:01:23;47.30;;;45.90;;
1140;SDS011;559;48.628;8.924;2022-09-03T11:03:55;48.17;;;46.77;;
1140;SDS011;559;48.628;8.924;2022-09-03T11:06:46;46.90;;;45.53;;
1140;SDS011;559;48.628;8.924;2022-09-03T11:09:17;47.63;;;46.23;;
1140;SDS011;559;48.628;8.924;2022-09-03T11:11:46;58.40;;;56.70;;
1140;SDS011;559;48.628;8.924;2022-09-03T11:14:17;69.30;;;67.10;;
1140;SDS011;559;48.628;8.924;2022-09-03T11:16:51;74.33;;;71.63;;
1140;SDS011;559;48.628;8.924;2022-09-03T11:19:21;80.90;;;77.90;;
1140;SDS011;559;48.628;8.924;2022-09-03T11:21:51;110.97;;;106.18;;
1140;SDS011;559;48.628;8.924;2022-09-03T11:24:20;106.90;;;102.20;;
1140;SDS011;559;48.628;8.924;2022-09-03T11:26:49;111.50;;;106.30;;
1140;SDS011;559;48.628;8.924;2022-09-03T11:29:19;116.10;;;110.70;;
1140;SDS011;559;48.628;8.924;2022-09-03T11:31:51;115.27;;;109.60;;
1140;SDS011;559;48.628;8.924;2022-09-03T11:34:26;117.33;;;111.27;;
1140;SDS011;559;48.628;8.924;2022-09-03T11:37:03;123.23;;;116.63;;
1140;SDS011;559;48.628;8.924;2022-09-03T11:39:43;125.80;;;118.80;;
1140;SDS011;559;48.628;8.924;2022-09-03T11:42:10;131.70;;;124.40;;
1140;SDS011;559;48.628;8.924;2022-09-03T11:44:38;128.37;;;121.27;;
1140;SDS011;559;48.628;8.924;2022-09-03T11:47:13;128.67;;;121.83;;
1140;SDS011;559;48.628;8.924;2022-09-03T11:49:45;127.53;;;120.57;;
1140;SDS011;559;48.628;8.924;2022-09-03T11:52:23;129.27;;;122.50;;
1140;SDS011;559;48.628;8.924;2022-09-03T11:54:52;132.00;;;124.70;;
1140;SDS011;559;48.628;8.924;2022-09-03T11:57:21;134.20;;;126.60;;
1140;SDS011;559;48.628;8.924;2022-09-03T11:59:50;134.03;;;126.43;;
1140;SDS011;559;48.628;8.924;2022-09-03T12:02:21;138.03;;;129.93;;
1140;SDS011;559;48.628;8.924;2022-09-03T12:04:52;136.80;;;128.80;;
1140;SDS011;559;48.628;8.924;2022-09-03T12:07:37;133.60;;;125.70;;
1140;SDS011;559;48.628;8.924;2022-09-03T12:12:54;131.77;;;124.27;;
1140;SDS011;559;48.628;8.924;2022-09-03T12:15:32;129.93;;;121.87;;
1140;SDS011;559;48.628;8.924;2022-09-03T12:18:07;129.93;;;122.03;;
1140;SDS011;559;48.628;8.924;2022-09-03T12:20:45;133.57;;;125.70;;
1140;SDS011;559;48.628;8.924;2022-09-03T12:23:24;129.57;;;121.83;;
1140;SDS011;559;48.628;8.924;2022-09-03T12:25:53;127.17;;;119.47;;
1140;SDS011;559;48.628;8.924;2022-09-03T12:28:20;127.33;;;119.60;;
1140;SDS011;559;48.628;8.924;2022-09-03T12:30:48;129.30;;;121.57;;
1140;SDS011;559;48.628;8.924;2022-09-03T12:33:17;131.60;;;123.90;;
1140;SDS011;559;48.628;8.924;2022-09-03T12:35:54;140.50;;;132.70;;
1140;SDS011;559;48.628;8.924;2022-09-03T12:38:22;138.17;;;130.17;;
1140;SDS011;559;48.628;8.924;2022-09-03T12:40:49;132.93;;;125.03;;
1140;SDS011;559;48.628;8.924;2022-09-03T12:43:17;142.20;;;134.20;;
1140;SDS011;559;48.628;8.924;2022-09-03T12:45:44;145.10;;;137.00;;
1140;SDS011;559;48.628;8.924;2022-09-03T12:48:12;132.63;;;124.63;;
1140;SDS011;559;48.628;8.924;2022-09-03T12:50:40;132.63;;;124.93;;
1140;SDS011;559;48.628;8.924;2022-09-03T12:53:07;137.80;;;130.00;;
1140;SDS011;559;48.628;8.924;2022-09-03T12:55:35;131.97;;;124.27;;
1140;SDS011;559;48.628;8.924;2022-09-03T12:58:04;124.03;;;116.43;;
1140;SDS011;559;48.628;8.924;2022-09-03T13:00:36;123.27;;;115.77;;
1140;SDS011;559;48.628;8.924;2022-09-03T13:03:25;120.83;;;113.50;;
1140;SDS011;559;48.628;8.924;2022-09-03T13:06:05;124.50;;;117.20;;
1140;SDS011;559;48.628;8.924;2022-09-03T13:08:34;127.97;;;120.43;;
1140;SDS011;559;48.628;8.924;2022-09-03T13:11:04;126.10;;;118.60;;
1140;SDS011;559;48.628;8.924;2022-09-03T13:13:31;128.60;;;120.97;;
1140;SDS011;559;48.628;8.924;2022-09-03T13:16:04;125.90;;;118.50;;
1140;SDS011;559;48.628;8.924;2022-09-03T13:18:37;125.20;;;117.93;;
1140;SDS011;559;48.628;8.924;2022-09-03T13:21:13;128.37;;;120.97;;
1140;SDS011;559;48.628;8.924;2022-09-03T13:23:48;127.47;;;119.97;;
1140;SDS011;559;48.628;8.924;2022-09-03T13:26:22;131.00;;;123.23;;
1140;SDS011;559;48.628;8.924;2022-09-03T13:28:59;124.67;;;117.40;;
1140;SDS011;559;48.628;8.924;2022-09-03T13:31:41;124.63;;;117.33;;
1140;SDS011;559;48.628;8.924;2022-09-03T13:34:13;122.13;;;114.63;;
1140;SDS011;559;48.628;8.924;2022-09-03T13:36:43;124.37;;;116.97;;
1140;SDS011;559;48.628;8.924;2022-09-03T13:39:16;122.20;;;115.00;;
1140;SDS011;559;48.628;8.924;2022-09-03T13:41:48;119.47;;;112.47;;
1140;SDS011;559;48.628;8.924;2022-09-03T13:44:18;121.40;;;114.30;;
1140;SDS011;559;48.628;8.924;2022-09-03T13:47:01;121.57;;;114.47;;
1140;SDS011;559;48.628;8.924;2022-09-03T13:49:33;121.50;;;114.20;;
1140;SDS011;559;48.628;8.924;2022-09-03T13:52:20;119.00;;;111.80;;
1140;SDS011;559;48.628;8.924;2022-09-03T13:54:58;118.20;;;111.00;;
1140;SDS011;559;48.628;8.924;2022-09-03T13:57:36;120.83;;;113.53;;
1140;SDS011;559;48.628;8.924;2022-09-03T14:00:05;114.50;;;107.80;;
1140;SDS011;559;48.628;8.924;2022-09-03T14:02:41;117.20;;;110.43;;
1140;SDS011;559;48.628;8.924;2022-09-03T14:05:13;125.47;;;118.07;;
1140;SDS011;559;48.628;8.924;2022-09-03T14:07:44;123.73;;;116.40;;
1140;SDS011;559;48.628;8.924;2022-09-03T14:10:20;121.20;;;114.10;;
1140;SDS011;559;48.628;8.924;2022-09-03T14:12:49;120.50;;;113.40;;
1140;SDS011;559;48.628;8.924;2022-09-03T14:15:26;121.53;;;114.33;;
1140;SDS011;559;48.628;8.924;2022-09-03T14:17:58;121.97;;;115.07;;
1140;SDS011;559;48.628;8.924;2022-09-03T14:20:28;120.33;;;113.30;;
1140;SDS011;559;48.628;8.924;2022-09-03T14:22:58;120.47;;;113.67;;
1140;SDS011;559;48.628;8.924;2022-09-03T14:25:36;120.53;;;113.60;;
1140;SDS011;559;48.628;8.924;2022-09-03T14:28:18;117.40;;;110.80;;
1140;SDS011;559;48.628;8.924;2022-09-03T14:30:54;120.57;;;113.87;;
1140;SDS011;559;48.628;8.924;2022-09-03T14:33:29;117.93;;;111.13;;
1140;SDS011;559;48.628;8.924;2022-09-03T14:36:05;117.07;;;110.37;;
1140;SDS011;559;48.628;8.924;2022-09-03T14:41:52;128.07;;;121.07;;
1140;SDS011;559;48.628;8.924;2022-09-03T14:47:16;121.27;;;114.27;;
1140;SDS011;559;48.628;8.924;2022-09-03T14:49:55;119.90;;;113.20;;
1140;SDS011;559;48.628;8.924;2022-09-03T14:52:39;120.57;;;113.77;;
1140;SDS011;559;48.628;8.924;2022-09-03T14:55:33;117.60;;;110.87;;
1140;SDS011;559;48.628;8.924;2022-09-03T14:58:28;109.97;;;103.63;;
1140;SDS011;559;48.628;8.924;2022-09-03T15:01:05;112.37;;;106.07;;
1140;SDS011;559;48.628;8.924;2022-09-03T15:09:27;101.70;;;96.00;;
1140;SDS011;559;48.628;8.924;2022-09-03T15:11:58;113.00;;;106.90;;
1140;SDS011;559;48.628;8.924;2022-09-03T15:14:29;109.33;;;103.40;;
1140;SDS011;559;48.628;8.924;2022-09-03T15:17:05;103.90;;;98.10;;
1140;SDS011;559;48.628;8.924;2022-09-03T15:19:52;114.80;;;108.70;;
1140;SDS011;559;48.628;8.924;2022-09-03T15:22:33;101.47;;;96.07;;
1140;SDS011;559;48.628;8.924;2022-09-03T15:25:17;101.23;;;95.83;;
1140;SDS011;559;48.628;8.924;2022-09-03T15:27:58;99.90;;;94.70;;